createdAt,value
2022-12-06T00:01:22.539Z,45.40
2022-12-06T00:03:54.715Z,45.47
2022-12-06T00:06:24.306Z,47.50
2022-12-06T00:08:51.607Z,41.80
2022-12-06T00:11:24.151Z,42.30
2022-12-06T00:13:59.387Z,41.97
2022-12-06T00:16:27.002Z,38.95
2022-12-06T00:18:54.286Z,38.38
2022-12-06T00:21:29.126Z,39.38
2022-12-06T00:24:02.232Z,39.10
2022-12-06T00:26:30.131Z,37.60
2022-12-06T00:28:59.246Z,39.30
2022-12-06T00:31:28.264Z,37.03
2022-12-06T00:33:55.248Z,40.78
2022-12-06T00:36:26.235Z,39.42
2022-12-06T00:38:52.988Z,41.17
2022-12-06T00:41:22.422Z,42.28
2022-12-06T00:43:49.904Z,39.90
2022-12-06T00:46:25.149Z,43.00
2022-12-06T00:48:53.058Z,44.80
2022-12-06T00:51:23.120Z,42.47
2022-12-06T00:53:50.414Z,41.50
2022-12-06T00:56:19.297Z,42.58
2022-12-06T00:58:47.019Z,45.20
2022-12-06T01:01:17.078Z,40.88
2022-12-06T01:03:45.398Z,41.55
2022-12-06T01:06:15.845Z,41.47
2022-12-06T01:08:43.738Z,39.95
2022-12-06T01:11:15.137Z,39.78
2022-12-06T01:13:44.326Z,39.67
2022-12-06T01:16:14.186Z,39.53
2022-12-06T01:18:42.069Z,40.75
2022-12-06T01:21:11.449Z,41.15
2022-12-06T01:23:38.244Z,39.22
2022-12-06T01:26:07.435Z,37.50
2022-12-06T01:28:34.180Z,36.78
2022-12-06T01:31:06.086Z,38.75
2022-12-06T01:33:32.742Z,39.85
2022-12-06T01:35:59.420Z,36.50
2022-12-06T01:38:26.411Z,37.83
2022-12-06T01:40:54.332Z,39.08
2022-12-06T01:43:42.777Z,38.75
2022-12-06T01:46:47.481Z,41.05
2022-12-06T01:49:19.279Z,38.42
2022-12-06T01:51:59.057Z,40.08
2022-12-06T01:54:27.577Z,41.67
2022-12-06T01:56:57.089Z,38.85
2022-12-06T01:59:25.512Z,39.95
2022-12-06T02:01:53.132Z,40.15
2022-12-06T02:04:22.111Z,41.70
2022-12-06T02:06:54.131Z,40.83
2022-12-06T02:09:21.600Z,38.85
2022-12-06T02:11:50.124Z,40.05
2022-12-06T02:14:27.680Z,40.80
2022-12-06T02:17:12.856Z,42.15
2022-12-06T02:19:58.548Z,43.50
2022-12-06T02:22:25.707Z,43.55
2022-12-06T02:24:55.364Z,42.72
2022-12-06T02:27:24.822Z,43.10
2022-12-06T02:30:08.518Z,42.00
2022-12-06T02:32:54.873Z,39.15
2022-12-06T02:35:37.039Z,39.67
2022-12-06T02:38:20.222Z,38.75
2022-12-06T02:41:01.573Z,43.15
2022-12-06T02:43:37.729Z,43.35
2022-12-06T02:46:05.964Z,47.45
2022-12-06T02:48:34.048Z,47.35
2022-12-06T02:51:07.199Z,43.38
2022-12-06T02:53:38.329Z,45.40
2022-12-06T02:56:06.176Z,44.75
2022-12-06T02:58:37.244Z,45.45
2022-12-06T03:01:12.347Z,45.83
2022-12-06T03:04:03.647Z,43.80
2022-12-06T03:07:14.674Z,39.58
2022-12-06T03:10:03.788Z,36.83
2022-12-06T03:12:44.152Z,38.33
2022-12-06T03:15:28.903Z,38.50
2022-12-06T03:18:06.414Z,38.50
2022-12-06T03:20:46.111Z,41.65
2022-12-06T03:23:18.774Z,40.53
2022-12-06T03:25:48.968Z,39.33
2022-12-06T03:28:17.924Z,43.80
2022-12-06T03:30:50.240Z,43.80
2022-12-06T03:33:21.344Z,42.08
2022-12-06T03:35:51.492Z,41.08
2022-12-06T03:38:29.863Z,40.15
2022-12-06T03:41:01.139Z,39.15
2022-12-06T03:43:27.979Z,44.65
2022-12-06T03:46:17.712Z,41.65
2022-12-06T03:48:52.807Z,44.20
2022-12-06T03:51:27.129Z,47.08
2022-12-06T03:53:57.414Z,51.35
2022-12-06T03:56:25.303Z,49.97
2022-12-06T03:58:52.215Z,51.90
2022-12-06T04:01:18.960Z,47.78
2022-12-06T04:03:45.805Z,43.28
2022-12-06T04:06:14.266Z,46.30
2022-12-06T04:08:41.011Z,41.47
2022-12-06T04:11:07.823Z,38.95
2022-12-06T04:13:35.700Z,38.58
2022-12-06T04:16:03.510Z,37.45
2022-12-06T04:18:30.304Z,37.22
2022-12-06T04:21:20.110Z,35.25
2022-12-06T04:23:49.176Z,35.63
2022-12-06T04:26:19.823Z,37.47
2022-12-06T04:29:06.311Z,37.50
2022-12-06T04:31:54.481Z,38.20
2022-12-06T04:34:39.944Z,34.83
2022-12-06T04:37:25.418Z,35.15
2022-12-06T04:39:52.079Z,36.28
2022-12-06T04:42:37.852Z,36.50
2022-12-06T04:45:06.005Z,36.28
2022-12-06T04:47:32.705Z,38.35
2022-12-06T04:49:59.653Z,34.90
2022-12-06T04:52:30.128Z,34.63
2022-12-06T04:55:00.918Z,34.78
2022-12-06T04:57:27.567Z,35.75
2022-12-06T04:59:55.315Z,36.03
2022-12-06T05:02:21.966Z,34.30
2022-12-06T05:04:48.612Z,34.67
2022-12-06T05:07:15.255Z,33.10
2022-12-06T05:09:42.918Z,35.13
2022-12-06T05:12:09.704Z,31.83
2022-12-06T05:14:36.722Z,31.63
2022-12-06T05:17:04.883Z,33.65
2022-12-06T05:19:31.605Z,35.38
2022-12-06T05:21:58.535Z,37.42
2022-12-06T05:24:25.291Z,37.42
2022-12-06T05:26:51.960Z,40.38
2022-12-06T05:29:24.693Z,41.88
2022-12-06T05:31:51.420Z,44.63
2022-12-06T05:34:18.139Z,40.83
2022-12-06T05:36:46.211Z,38.28
2022-12-06T05:39:13.168Z,35.55
2022-12-06T05:41:40.572Z,38.20
2022-12-06T05:44:09.799Z,39.08
2022-12-06T05:46:36.463Z,36.72
2022-12-06T05:49:03.294Z,35.28
2022-12-06T05:51:30.154Z,36.25
2022-12-06T05:53:56.817Z,35.08
2022-12-06T05:56:23.471Z,35.70
2022-12-06T05:58:50.268Z,32.80
2022-12-06T06:01:16.923Z,34.05
2022-12-06T06:03:47.496Z,36.67
2022-12-06T06:06:15.311Z,39.05
2022-12-06T06:08:42.421Z,38.15
2022-12-06T06:11:09.151Z,38.65
2022-12-06T06:13:35.787Z,36.40
2022-12-06T06:16:02.665Z,35.65
2022-12-06T06:18:29.291Z,35.30
2022-12-06T06:20:58.939Z,37.42
2022-12-06T06:23:26.950Z,35.25
2022-12-06T06:25:54.220Z,38.85
2022-12-06T06:28:21.279Z,41.58
2022-12-06T06:30:48.482Z,46.03
2022-12-06T06:33:15.856Z,45.17
2022-12-06T06:35:43.173Z,43.25
2022-12-06T06:38:09.898Z,38.70
2022-12-06T06:40:36.850Z,40.70
2022-12-06T06:43:18.346Z,36.95
2022-12-06T06:45:56.013Z,36.47
2022-12-06T06:48:24.659Z,36.20
2022-12-06T06:50:57.051Z,35.13
2022-12-06T06:53:26.297Z,36.83
2022-12-06T06:55:54.354Z,34.67
2022-12-06T06:58:21.043Z,35.42
2022-12-06T07:00:52.901Z,34.13
2022-12-06T07:03:20.720Z,34.95
2022-12-06T07:06:01.799Z,34.47
2022-12-06T07:08:30.011Z,32.30
2022-12-06T07:10:56.804Z,34.55
2022-12-06T07:13:25.169Z,32.08
2022-12-06T07:15:52.414Z,31.45
2022-12-06T07:18:19.688Z,33.53
2022-12-06T07:20:47.414Z,32.33
2022-12-06T07:23:14.890Z,28.33
2022-12-06T07:25:41.850Z,31.73
2022-12-06T07:28:08.504Z,31.00
2022-12-06T07:30:35.323Z,32.15
2022-12-06T07:33:03.321Z,30.35
2022-12-06T07:35:48.870Z,32.95
2022-12-06T07:38:17.037Z,34.13
2022-12-06T07:43:49.190Z,32.53
2022-12-06T07:46:16.000Z,34.53
2022-12-06T07:48:42.868Z,37.42
2022-12-06T07:51:09.650Z,38.03
2022-12-06T07:53:36.437Z,34.03
2022-12-06T07:56:08.036Z,36.17
2022-12-06T07:58:34.778Z,35.35
2022-12-06T08:01:04.485Z,32.33
2022-12-06T08:03:31.626Z,36.42
2022-12-06T08:05:58.784Z,31.23
2022-12-06T08:08:28.810Z,33.40
2022-12-06T08:10:59.633Z,31.65
2022-12-06T08:13:26.771Z,32.42
2022-12-06T08:15:53.458Z,34.03
2022-12-06T08:18:20.218Z,31.92
2022-12-06T08:20:46.956Z,29.92
2022-12-06T08:23:13.613Z,30.88
2022-12-06T08:25:40.348Z,30.95
2022-12-06T08:28:07.046Z,32.53
2022-12-06T08:30:33.761Z,31.52
2022-12-06T08:33:02.869Z,33.22
2022-12-06T08:35:29.530Z,34.30
2022-12-06T08:37:56.197Z,31.88
2022-12-06T08:40:22.864Z,32.28
2022-12-06T08:42:49.575Z,35.42
2022-12-06T08:45:16.423Z,36.90
2022-12-06T08:47:43.102Z,32.72
2022-12-06T08:50:10.033Z,34.97
2022-12-06T08:52:36.706Z,34.42
2022-12-06T08:55:03.601Z,33.40
2022-12-06T08:57:32.866Z,33.78
2022-12-06T08:59:59.926Z,34.00
2022-12-06T09:02:26.798Z,34.55
2022-12-06T09:04:53.793Z,34.13
2022-12-06T09:07:20.564Z,37.92
2022-12-06T09:09:47.346Z,35.00
2022-12-06T09:12:14.122Z,37.60
2022-12-06T09:14:40.787Z,38.00
2022-12-06T09:17:07.494Z,36.10
2022-12-06T09:19:37.216Z,37.13
2022-12-06T09:22:03.999Z,38.00
2022-12-06T09:24:30.798Z,37.92
2022-12-06T09:26:57.509Z,36.28
2022-12-06T09:29:25.025Z,32.20
2022-12-06T09:31:51.924Z,34.55
2022-12-06T09:34:18.690Z,36.38
2022-12-06T09:37:05.126Z,36.05
2022-12-06T09:39:36.754Z,35.45
2022-12-06T09:42:18.189Z,36.85
2022-12-06T09:45:03.528Z,36.00
2022-12-06T09:47:32.971Z,34.80
2022-12-06T09:50:13.046Z,38.38
2022-12-06T09:53:04.428Z,42.15
2022-12-06T09:55:54.841Z,34.00
2022-12-06T09:58:52.661Z,34.55
2022-12-06T10:01:56.765Z,39.03
2022-12-06T10:04:41.913Z,34.53
2022-12-06T10:07:22.459Z,34.20
2022-12-06T10:10:15.304Z,34.05
2022-12-06T10:12:49.184Z,38.00
2022-12-06T10:15:32.767Z,39.50
2022-12-06T10:18:12.741Z,40.08
2022-12-06T10:21:08.843Z,42.10
2022-12-06T10:24:17.786Z,45.65
2022-12-06T10:26:53.629Z,42.78
2022-12-06T10:29:55.113Z,52.95
2022-12-06T10:32:32.427Z,45.20
2022-12-06T10:35:13.806Z,50.45
2022-12-06T10:38:06.544Z,45.53
2022-12-06T10:41:10.267Z,42.60
2022-12-06T10:43:54.983Z,43.92
2022-12-06T10:46:56.871Z,41.97
2022-12-06T10:49:39.373Z,45.20
2022-12-06T10:52:18.821Z,41.65
2022-12-06T10:55:09.116Z,43.45
2022-12-06T10:57:38.665Z,49.53
2022-12-06T11:00:21.439Z,46.22
2022-12-06T11:03:12.638Z,45.95
2022-12-06T11:06:17.943Z,48.10
2022-12-06T11:08:52.588Z,47.53
2022-12-06T11:11:26.783Z,48.28
2022-12-06T11:14:04.636Z,45.35
2022-12-06T11:16:38.020Z,46.90
2022-12-06T11:19:16.300Z,47.65
2022-12-06T11:21:50.874Z,44.83
2022-12-06T11:24:35.268Z,41.80
2022-12-06T11:27:16.148Z,42.65
2022-12-06T11:29:44.551Z,41.58
2022-12-06T11:32:14.068Z,43.15
2022-12-06T11:34:50.883Z,41.55
2022-12-06T11:37:23.014Z,40.28
2022-12-06T11:39:56.242Z,37.80
2022-12-06T11:42:27.520Z,39.55
2022-12-06T11:45:21.858Z,43.42
2022-12-06T11:47:48.541Z,43.00
2022-12-06T11:50:18.790Z,39.65
2022-12-06T11:52:53.313Z,41.17
2022-12-06T11:55:24.263Z,39.47
2022-12-06T11:57:58.555Z,38.78
2022-12-06T12:00:26.577Z,40.38
2022-12-06T12:02:55.769Z,48.75
2022-12-06T12:05:34.533Z,46.60
2022-12-06T12:08:17.157Z,55.58
2022-12-06T12:10:46.285Z,53.80
2022-12-06T12:13:31.495Z,52.30
2022-12-06T12:16:19.986Z,49.10
2022-12-06T12:18:54.074Z,45.90
2022-12-06T12:21:34.339Z,52.10
2022-12-06T12:24:01.231Z,55.08
2022-12-06T12:26:41.144Z,47.42
2022-12-06T12:29:19.715Z,47.50
2022-12-06T12:31:54.450Z,45.72
2022-12-06T12:34:27.239Z,46.88
2022-12-06T12:37:02.931Z,45.85
2022-12-06T12:39:47.373Z,45.10
2022-12-06T12:42:32.958Z,45.60
2022-12-06T12:45:02.885Z,45.45
2022-12-06T12:47:30.971Z,43.90
2022-12-06T12:50:20.152Z,44.03
2022-12-06T12:52:47.448Z,42.13
2022-12-06T12:55:18.178Z,44.00
2022-12-06T13:00:17.910Z,42.17
2022-12-06T13:05:33.339Z,39.63
2022-12-06T13:08:21.655Z,36.70
2022-12-06T13:10:57.047Z,34.90
2022-12-06T13:13:47.946Z,36.17
2022-12-06T13:16:19.683Z,35.83
2022-12-06T13:18:51.090Z,35.63
2022-12-06T13:21:25.653Z,38.67
2022-12-06T13:24:07.574Z,39.38
2022-12-06T13:26:39.320Z,43.50
2022-12-06T13:29:23.932Z,50.78
2022-12-06T13:31:53.630Z,48.22
2022-12-06T13:34:52.006Z,44.87
2022-12-06T13:37:43.588Z,42.00
2022-12-06T13:40:33.190Z,39.65
2022-12-06T13:43:01.788Z,36.67
2022-12-06T13:45:40.623Z,38.45
2022-12-06T13:48:25.726Z,37.85
2022-12-06T13:50:55.498Z,41.70
2022-12-06T13:53:27.767Z,34.63
2022-12-06T13:56:03.347Z,30.63
2022-12-06T13:58:32.393Z,30.65
2022-12-06T14:00:59.171Z,30.45
2022-12-06T14:03:25.872Z,30.02
2022-12-06T14:06:15.760Z,46.50
2022-12-06T14:09:00.120Z,33.75
2022-12-06T14:11:29.387Z,35.90
2022-12-06T14:13:56.188Z,37.45
2022-12-06T14:16:32.842Z,40.72
2022-12-06T14:19:00.248Z,37.28
2022-12-06T14:21:34.197Z,54.30
2022-12-06T14:24:00.934Z,47.58
2022-12-06T14:26:29.703Z,42.97
2022-12-06T14:28:59.483Z,38.75
2022-12-06T14:31:30.233Z,38.80
2022-12-06T14:33:57.585Z,35.50
2022-12-06T14:36:33.566Z,35.17
2022-12-06T14:39:05.807Z,35.85
2022-12-06T14:41:56.550Z,37.17
2022-12-06T14:46:58.476Z,35.80
2022-12-06T14:49:45.667Z,40.70
2022-12-06T14:52:30.440Z,44.60
2022-12-06T14:55:12.623Z,42.80
2022-12-06T14:57:51.113Z,47.25
2022-12-06T15:00:27.419Z,45.72
2022-12-06T15:03:04.158Z,39.50
2022-12-06T15:05:43.695Z,37.20
2022-12-06T15:08:28.454Z,33.90
2022-12-06T15:10:59.945Z,33.55
2022-12-06T15:13:27.596Z,32.13
2022-12-06T15:16:09.742Z,27.13
2022-12-06T15:18:54.968Z,27.73
2022-12-06T15:21:21.699Z,26.10
2022-12-06T15:23:57.634Z,26.98
2022-12-06T15:26:25.030Z,27.52
2022-12-06T15:28:51.998Z,30.30
2022-12-06T15:31:27.256Z,30.77
2022-12-06T15:33:54.787Z,32.53
2022-12-06T15:36:26.710Z,32.67
2022-12-06T15:38:53.544Z,32.88
2022-12-06T15:41:22.298Z,32.30
2022-12-06T15:43:50.664Z,33.15
2022-12-06T15:46:29.218Z,34.10
2022-12-06T15:48:58.811Z,32.92
2022-12-06T15:51:27.099Z,33.97
2022-12-06T15:53:58.165Z,38.70
2022-12-06T15:56:28.507Z,36.25
2022-12-06T15:58:55.334Z,32.42
2022-12-06T16:01:23.570Z,32.42
2022-12-06T16:03:54.223Z,32.53
2022-12-06T16:08:48.881Z,71.93
2022-12-06T16:11:18.671Z,37.28
2022-12-06T16:13:45.477Z,65.03
2022-12-06T16:16:12.899Z,40.75
2022-12-06T16:18:39.693Z,32.92
2022-12-06T16:21:07.142Z,32.53
2022-12-06T16:26:45.313Z,32.33
2022-12-06T16:29:21.077Z,32.17
2022-12-06T16:31:48.280Z,31.05
2022-12-06T16:34:15.841Z,30.40
2022-12-06T16:37:13.246Z,30.77
2022-12-06T16:39:40.051Z,29.77
2022-12-06T16:42:07.240Z,28.85
2022-12-06T16:44:50.713Z,29.95
2022-12-06T16:49:47.487Z,28.73
2022-12-06T16:52:16.112Z,31.10
2022-12-06T16:54:43.194Z,29.70
2022-12-06T16:57:11.895Z,33.60
2022-12-06T16:59:39.003Z,32.58
2022-12-06T17:02:24.452Z,31.42
2022-12-06T17:04:51.187Z,31.05
2022-12-06T17:07:20.457Z,30.83
2022-12-06T17:09:47.298Z,32.05
2022-12-06T17:12:15.331Z,33.90
2022-12-06T17:14:42.460Z,34.65
2022-12-06T17:17:15.374Z,33.45
2022-12-06T17:19:43.041Z,35.25
2022-12-06T17:22:12.263Z,34.15
2022-12-06T17:24:39.124Z,37.78
2022-12-06T17:27:11.303Z,32.58
2022-12-06T17:29:38.151Z,34.00
2022-12-06T17:32:06.861Z,33.45
2022-12-06T17:34:36.532Z,64.80
2022-12-06T17:37:03.855Z,60.13
2022-12-06T17:39:33.236Z,32.53
2022-12-06T17:42:18.767Z,53.35
2022-12-06T17:44:46.554Z,29.88
2022-12-06T17:47:13.249Z,29.35
2022-12-06T17:49:40.054Z,30.08
2022-12-06T17:52:07.021Z,38.92
2022-12-06T17:54:33.708Z,74.90
2022-12-06T17:57:00.438Z,52.35
2022-12-06T17:59:33.999Z,31.33
2022-12-06T18:02:15.155Z,30.40
2022-12-06T18:04:43.837Z,29.00
2022-12-06T18:07:13.114Z,29.95
2022-12-06T18:09:40.199Z,28.08
2022-12-06T18:12:09.397Z,29.20
2022-12-06T18:14:36.343Z,30.35
2022-12-06T18:17:03.541Z,28.48
2022-12-06T18:19:31.286Z,26.85
2022-12-06T18:21:57.978Z,24.83
2022-12-06T18:24:29.137Z,23.05
2022-12-06T18:26:58.601Z,22.23
2022-12-06T18:29:26.577Z,23.02
2022-12-06T18:31:53.354Z,22.52
2022-12-06T18:34:20.259Z,23.75
2022-12-06T18:36:47.981Z,22.15
2022-12-06T18:39:16.685Z,26.50
2022-12-06T18:41:44.500Z,28.40
2022-12-06T18:44:15.574Z,25.52
2022-12-06T18:46:42.949Z,29.83
2022-12-06T18:49:26.863Z,27.45
2022-12-06T18:51:55.038Z,26.67
2022-12-06T18:54:23.027Z,28.27
2022-12-06T18:56:49.678Z,30.67
2022-12-06T18:59:16.546Z,34.53
2022-12-06T19:01:43.636Z,28.58
2022-12-06T19:04:14.817Z,32.33
2022-12-06T19:06:48.703Z,33.75
2022-12-06T19:09:15.911Z,25.40
2022-12-06T19:11:46.368Z,24.50
2022-12-06T19:14:16.604Z,26.13
2022-12-06T19:16:48.664Z,24.42
2022-12-06T19:19:24.294Z,24.05
2022-12-06T19:21:53.647Z,25.77
2022-12-06T19:24:23.615Z,26.23
2022-12-06T19:26:51.819Z,27.35
2022-12-06T19:29:19.906Z,26.35
2022-12-06T19:31:48.407Z,25.38
2022-12-06T19:34:22.099Z,24.25
2022-12-06T19:36:50.449Z,30.67
2022-12-06T19:39:17.969Z,31.50
2022-12-06T19:42:05.797Z,30.33
2022-12-06T19:44:33.884Z,28.02
2022-12-06T19:47:03.085Z,32.42
2022-12-06T19:49:29.847Z,28.35
2022-12-06T19:51:56.662Z,27.95
2022-12-06T19:54:29.273Z,24.90
2022-12-06T19:56:58.211Z,27.67
2022-12-06T19:59:27.679Z,26.63
2022-12-06T20:01:54.903Z,26.90
2022-12-06T20:04:29.007Z,21.55
2022-12-06T20:06:57.922Z,22.55
2022-12-06T20:09:29.750Z,22.23
2022-12-06T20:12:04.749Z,19.77
2022-12-06T20:14:47.238Z,16.05
2022-12-06T20:17:19.895Z,18.40
2022-12-06T20:19:48.312Z,19.35
2022-12-06T20:22:16.518Z,19.60
2022-12-06T20:24:43.565Z,22.10
2022-12-06T20:27:10.592Z,21.35
2022-12-06T20:29:40.137Z,23.02
2022-12-06T20:32:09.161Z,21.20
2022-12-06T20:34:36.342Z,21.00
2022-12-06T20:37:06.128Z,23.15
2022-12-06T20:39:35.164Z,22.30
2022-12-06T20:42:03.382Z,19.58
2022-12-06T20:44:32.515Z,20.23
2022-12-06T20:47:00.662Z,18.83
2022-12-06T20:49:27.408Z,19.65
2022-12-06T20:51:54.347Z,20.95
2022-12-06T20:54:22.254Z,17.65
2022-12-06T20:56:51.999Z,17.65
2022-12-06T20:59:20.620Z,18.67
2022-12-06T21:01:47.789Z,17.70
2022-12-06T21:04:15.739Z,16.67
2022-12-06T21:06:42.493Z,18.42
2022-12-06T21:09:09.657Z,19.05
2022-12-06T21:11:37.468Z,20.80
2022-12-06T21:14:05.499Z,21.27
2022-12-06T21:16:33.772Z,19.27
2022-12-06T21:19:03.543Z,21.00
2022-12-06T21:21:43.027Z,18.30
2022-12-06T21:24:16.233Z,15.88
2022-12-06T21:26:43.395Z,15.57
2022-12-06T21:29:30.789Z,13.32
2022-12-06T21:32:00.231Z,15.52
2022-12-06T21:34:27.031Z,13.25
2022-12-06T21:36:55.996Z,14.10
2022-12-06T21:39:23.326Z,13.80
2022-12-06T21:41:50.180Z,14.43
2022-12-06T21:44:16.960Z,12.05
2022-12-06T21:46:50.387Z,10.38
2022-12-06T21:49:17.100Z,10.23
2022-12-06T21:51:53.729Z,9.73
2022-12-06T21:54:23.523Z,11.20
2022-12-06T21:56:50.601Z,10.48
2022-12-06T21:59:19.349Z,11.07
2022-12-06T22:01:47.209Z,12.20
2022-12-06T22:04:16.379Z,12.05
2022-12-06T22:06:43.182Z,11.88
2022-12-06T22:09:24.386Z,12.73
2022-12-06T22:12:04.389Z,12.65
2022-12-06T22:14:37.381Z,12.05
2022-12-06T22:17:04.220Z,11.25
2022-12-06T22:19:31.211Z,12.75
2022-12-06T22:22:00.483Z,10.57
2022-12-06T22:24:28.487Z,12.13
2022-12-06T22:26:55.242Z,11.43
2022-12-06T22:29:22.050Z,11.98
2022-12-06T22:31:48.801Z,10.65
2022-12-06T22:34:16.850Z,11.55
2022-12-06T22:36:44.232Z,10.82
2022-12-06T22:39:11.546Z,9.93
2022-12-06T22:41:38.530Z,9.27
2022-12-06T22:44:06.891Z,10.63
2022-12-06T22:46:34.869Z,9.77
2022-12-06T22:49:02.608Z,10.55
2022-12-06T22:51:35.000Z,9.32
2022-12-06T22:54:08.951Z,9.40
2022-12-06T22:56:38.719Z,9.15
2022-12-06T22:59:05.403Z,9.77
2022-12-06T23:01:35.069Z,9.38
2022-12-06T23:04:04.783Z,8.77
2022-12-06T23:06:32.239Z,9.88
2022-12-06T23:08:59.061Z,9.07
2022-12-06T23:11:29.260Z,9.10
2022-12-06T23:13:57.163Z,9.35
2022-12-06T23:16:29.056Z,11.25
2022-12-06T23:18:56.658Z,10.35
2022-12-06T23:21:34.807Z,10.20
2022-12-06T23:24:04.854Z,10.43
2022-12-06T23:26:44.326Z,10.88
2022-12-06T23:29:11.625Z,9.50
2022-12-06T23:31:41.543Z,10.43
2022-12-06T23:34:16.803Z,10.13
2022-12-06T23:36:44.106Z,10.57
2022-12-06T23:39:11.330Z,10.68
2022-12-06T23:41:38.549Z,9.93
2022-12-06T23:44:06.497Z,8.95
2022-12-06T23:46:37.272Z,9.23
2022-12-06T23:49:05.940Z,8.80
2022-12-06T23:51:38.038Z,8.88
2022-12-06T23:54:07.130Z,8.95
2022-12-06T23:56:36.897Z,9.18
2022-12-06T23:59:06.741Z,8.13
